Time,TemperatureF,DewpointF,PressureIn,WindDirection,WindDirectionDegrees,WindSpeedMPH,WindSpeedGustMPH,Humidity,HourlyPrecipIn,Conditions,Clouds,dailyrainin,SoftwareType,DateUTC
2013-03-22 00:09:00,26.9,24.0,29.62,West,279,0.0,0.0,90,0.00,,,0.00,weatherlink.com 1.10,2013-03-22 04:09:00,
2013-03-22 00:25:00,26.5,24.0,29.62,WNW,291,2.0,4.0,90,0.00,,,0.00,weatherlink.com 1.10,2013-03-22 04:25:00,
2013-03-22 00:39:00,26.2,24.0,29.61,WNW,291,1.0,4.0,90,0.00,,,0.00,weatherlink.com 1.10,2013-03-22 04:39:00,
2013-03-22 00:54:00,25.6,23.0,29.61,West,264,0.0,0.0,90,0.00,,,0.00,weatherlink.com 1.10,2013-03-22 04:54:00,
2013-03-22 01:09:00,24.8,23.0,29.61,West,281,0.0,2.0,91,0.00,,,0.00,weatherlink.com 1.10,2013-03-22 05:09:00,
2013-03-22 01:24:00,24.6,22.0,29.61,WSW,244,0.0,2.0,91,0.00,,,0.00,weatherlink.com 1.10,2013-03-22 05:24:00,
2013-03-22 01:39:00,24.0,22.0,29.61,WSW,243,0.0,0.0,92,0.00,,,0.00,weatherlink.com 1.10,2013-03-22 05:39:00,
2013-03-22 01:54:00,23.5,22.0,29.61,West,261,0.0,1.0,92,0.00,,,0.00,weatherlink.com 1.10,2013-03-22 05:54:00,
2013-03-22 02:09:00,24.2,22.0,29.60,West,276,0.0,1.0,92,0.00,,,0.00,weatherlink.com 1.10,2013-03-22 06:09:00,
2013-03-22 02:24:00,24.1,22.0,29.60,WSW,257,0.0,1.0,91,0.00,,,0.00,weatherlink.com 1.10,2013-03-22 06:24:00,
2013-03-22 02:39:00,23.9,22.0,29.60,West,279,0.0,1.0,91,0.00,,,0.00,weatherlink.com 1.10,2013-03-22 06:39:00,
2013-03-22 02:54:00,23.8,21.0,29.60,WNW,288,3.0,5.0,90,0.00,,,0.00,weatherlink.com 1.10,2013-03-22 06:54:00,
2013-03-22 03:09:00,23.7,21.0,29.60,West,277,1.0,5.0,90,0.00,,,0.00,weatherlink.com 1.10,2013-03-22 07:09:00,
2013-03-22 03:24:00,23.6,21.0,29.60,WSW,242,0.0,2.0,89,0.00,,,0.00,weatherlink.com 1.10,2013-03-22 07:24:00,
2013-03-22 03:39:00,23.6,21.0,29.60,NW,321,0.0,2.0,90,0.00,,,0.00,weatherlink.com 1.10,2013-03-22 07:39:00,
2013-03-22 03:54:00,23.8,21.0,29.59,WNW,284,6.0,8.0,87,0.00,,,0.00,weatherlink.com 1.10,2013-03-22 07:54:00,
2013-03-22 04:09:00,24.2,21.0,29.59,NW,317,0.0,8.0,86,0.00,,,0.00,weatherlink.com 1.10,2013-03-22 08:09:00,
2013-03-22 04:24:00,23.8,20.0,29.60,NW,304,2.0,4.0,86,0.00,,,0.00,weatherlink.com 1.10,2013-03-22 08:24:00,
2013-03-22 04:39:00,22.9,19.0,29.60,NW,313,0.0,2.0,86,0.00,,,0.00,weatherlink.com 1.10,2013-03-22 08:39:00,
2013-03-22 04:54:00,23.4,20.0,29.61,WNW,288,1.0,2.0,86,0.00,,,0.00,weatherlink.com 1.10,2013-03-22 08:54:00,
2013-03-22 05:10:00,23.4,20.0,29.61,NW,304,0.0,4.0,85,0.00,,,0.00,weatherlink.com 1.10,2013-03-22 09:10:00,
2013-03-22 05:25:00,22.7,19.0,29.61,NW,310,1.0,4.0,86,0.00,,,0.00,weatherlink.com 1.10,2013-03-22 09:25:00,
2013-03-22 05:40:00,23.1,19.0,29.60,WNW,290,4.0,8.0,85,0.00,,,0.00,weatherlink.com 1.10,2013-03-22 09:40:00,
2013-03-22 05:55:00,23.7,19.0,29.61,NW,309,4.0,9.0,82,0.00,,,0.00,weatherlink.com 1.10,2013-03-22 09:55:00,
2013-03-22 06:10:00,23.9,20.0,29.61,NW,310,2.0,7.0,83,0.00,,,0.00,weatherlink.com 1.10,2013-03-22 10:10:00,
2013-03-22 06:25:00,24.1,19.0,29.61,NW,311,4.0,8.0,81,0.00,,,0.00,weatherlink.com 1.10,2013-03-22 10:25:00,
2013-03-22 06:40:00,24.2,19.0,29.62,WNW,299,0.0,6.0,82,0.00,,,0.00,weatherlink.com 1.10,2013-03-22 10:40:00,
2013-03-22 06:55:00,24.5,19.0,29.62,West,281,1.0,5.0,81,0.00,,,0.00,weatherlink.com 1.10,2013-03-22 10:55:00,
2013-03-22 07:10:00,25.6,19.0,29.62,WNW,286,3.0,9.0,77,0.00,,,0.00,weatherlink.com 1.10,2013-03-22 11:10:00,
2013-03-22 07:25:00,26.9,20.0,29.62,WNW,291,5.0,10.0,74,0.00,,,0.00,weatherlink.com 1.10,2013-03-22 11:25:00,
2013-03-22 07:40:00,27.5,20.0,29.62,North,360,1.0,8.0,72,0.00,,,0.00,weatherlink.com 1.10,2013-03-22 11:40:00,
2013-03-22 07:55:00,27.5,19.0,29.63,WNW,283,3.0,11.0,71,0.00,,,0.00,weatherlink.com 1.10,2013-03-22 11:55:00,
2013-03-22 08:10:00,27.7,19.0,29.63,WNW,286,5.0,10.0,70,0.00,,,0.00,weatherlink.com 1.10,2013-03-22 12:10:00,
2013-03-22 08:25:00,28.3,19.0,29.64,West,275,1.0,9.0,69,0.00,,,0.00,weatherlink.com 1.10,2013-03-22 12:25:00,
2013-03-22 08:40:00,28.5,19.0,29.64,WNW,292,7.0,10.0,68,0.00,,,0.00,weatherlink.com 1.10,2013-03-22 12:40:00,
2013-03-22 08:55:00,28.9,19.0,29.64,WNW,296,10.0,10.0,67,0.00,,,0.00,weatherlink.com 1.10,2013-03-22 12:55:00,
2013-03-22 09:10:00,29.4,19.0,29.64,WNW,296,9.0,14.0,65,0.00,,,0.00,weatherlink.com 1.10,2013-03-22 13:10:00,
2013-03-22 09:25:00,30.0,19.0,29.64,WNW,288,9.0,14.0,63,0.00,,,0.00,weatherlink.com 1.10,2013-03-22 13:25:00,
2013-03-22 09:40:00,30.6,19.0,29.64,WNW,294,9.0,12.0,62,0.00,,,0.00,weatherlink.com 1.10,2013-03-22 13:40:00,
2013-03-22 09:55:00,31.2,19.0,29.64,West,281,6.0,13.0,61,0.00,,,0.00,weatherlink.com 1.10,2013-03-22 13:55:00,
2013-03-22 10:10:00,32.0,19.0,29.63,WNW,283,6.0,11.0,60,0.00,,,0.00,weatherlink.com 1.10,2013-03-22 14:10:00,
2013-03-22 10:25:00,33.0,20.0,29.63,WNW,286,6.0,11.0,58,0.00,,,0.00,weatherlink.com 1.10,2013-03-22 14:25:00,
2013-03-22 10:40:00,33.5,19.0,29.63,West,279,8.0,13.0,55,0.00,,,0.00,weatherlink.com 1.10,2013-03-22 14:40:00,
2013-03-22 10:55:00,33.6,19.0,29.63,WNW,294,8.0,13.0,55,0.00,,,0.00,weatherlink.com 1.10,2013-03-22 14:55:00,
2013-03-22 11:10:00,33.7,19.0,29.63,West,281,7.0,15.0,55,0.00,,,0.00,weatherlink.com 1.10,2013-03-22 15:10:00,
2013-03-22 11:25:00,34.7,19.0,29.63,WNW,282,9.0,12.0,52,0.00,,,0.00,weatherlink.com 1.10,2013-03-22 15:25:00,
2013-03-22 11:40:00,35.3,19.0,29.62,WNW,297,7.0,11.0,51,0.00,,,0.00,weatherlink.com 1.10,2013-03-22 15:40:00,
2013-03-22 11:55:00,36.2,18.0,29.62,NW,309,5.0,14.0,48,0.00,,,0.00,weatherlink.com 1.10,2013-03-22 15:55:00,
2013-03-22 12:10:00,36.5,18.0,29.62,WNW,286,6.0,15.0,47,0.00,,,0.00,weatherlink.com 1.10,2013-03-22 16:10:00,
2013-03-22 12:25:00,37.2,19.0,29.62,NW,311,7.0,14.0,48,0.00,,,0.00,weatherlink.com 1.10,2013-03-22 16:25:00,
2013-03-22 12:40:00,36.9,17.0,29.62,WNW,288,15.0,19.0,45,0.00,,,0.00,weatherlink.com 1.10,2013-03-22 16:40:00,
2013-03-22 12:55:00,37.4,17.0,29.61,NW,312,7.0,14.0,44,0.00,,,0.00,weatherlink.com 1.10,2013-03-22 16:55:00,
2013-03-22 13:10:00,37.2,18.0,29.61,West,279,6.0,16.0,46,0.00,,,0.00,weatherlink.com 1.10,2013-03-22 17:10:00,
2013-03-22 13:25:00,37.4,18.0,29.60,WSW,237,5.0,14.0,46,0.00,,,0.00,weatherlink.com 1.10,2013-03-22 17:25:00,
2013-03-22 13:40:00,36.6,18.0,29.60,West,267,9.0,16.0,47,0.00,,,0.00,weatherlink.com 1.10,2013-03-22 17:40:00,
2013-03-22 13:55:00,38.1,18.0,29.59,WSW,246,10.0,23.0,44,0.00,,,0.00,weatherlink.com 1.10,2013-03-22 17:55:00,
2013-03-22 14:10:00,37.9,17.0,29.59,WSW,254,10.0,19.0,43,0.00,,,0.00,weatherlink.com 1.10,2013-03-22 18:10:00,
2013-03-22 14:26:00,39.3,17.0,29.59,WSW,249,14.0,21.0,40,0.00,,,0.00,weatherlink.com 1.10,2013-03-22 18:26:00,
2013-03-22 14:41:00,38.6,17.0,29.59,WSW,251,12.0,18.0,41,0.00,,,0.00,weatherlink.com 1.10,2013-03-22 18:41:00,
2013-03-22 14:56:00,37.9,17.0,29.59,West,279,11.0,15.0,42,0.00,,,0.00,weatherlink.com 1.10,2013-03-22 18:56:00,
2013-03-22 15:11:00,37.9,17.0,29.59,WNW,290,15.0,20.0,42,0.00,,,0.00,weatherlink.com 1.10,2013-03-22 19:11:00,
2013-03-22 15:26:00,38.0,16.0,29.59,West,261,10.0,14.0,41,0.00,,,0.00,weatherlink.com 1.10,2013-03-22 19:26:00,
2013-03-22 15:41:00,38.4,16.0,29.59,WNW,294,13.0,18.0,40,0.00,,,0.00,weatherlink.com 1.10,2013-03-22 19:41:00,
2013-03-22 15:56:00,38.5,16.0,29.59,WSW,245,10.0,21.0,40,0.00,,,0.00,weatherlink.com 1.10,2013-03-22 19:56:00,
2013-03-22 16:11:00,38.2,15.0,29.59,WSW,249,13.0,19.0,39,0.00,,,0.00,weatherlink.com 1.10,2013-03-22 20:11:00,
2013-03-22 16:26:00,38.4,16.0,29.59,West,279,11.0,18.0,41,0.00,,,0.00,weatherlink.com 1.10,2013-03-22 20:26:00,
2013-03-22 16:41:00,39.3,17.0,29.59,WSW,248,15.0,22.0,40,0.00,,,0.00,weatherlink.com 1.10,2013-03-22 20:41:00,
2013-03-22 16:56:00,38.6,16.0,29.59,West,271,6.0,19.0,40,0.00,,,0.00,weatherlink.com 1.10,2013-03-22 20:56:00,
2013-03-22 17:11:00,38.1,17.0,29.59,SW,221,7.0,18.0,42,0.00,,,0.00,weatherlink.com 1.10,2013-03-22 21:11:00,
2013-03-22 17:26:00,37.7,17.0,29.59,West,271,14.0,16.0,43,0.00,,,0.00,weatherlink.com 1.10,2013-03-22 21:26:00,
2013-03-22 17:56:00,37.1,18.0,29.59,WSW,250,5.0,10.0,46,0.00,,,0.00,weatherlink.com 1.10,2013-03-22 21:56:00,
2013-03-22 19:11:00,34.9,16.0,29.62,West,263,6.0,12.0,47,0.00,,,0.00,weatherlink.com 1.10,2013-03-22 23:11:00,
2013-03-22 19:56:00,33.1,17.0,29.63,WSW,242,6.0,9.0,52,0.00,,,0.00,weatherlink.com 1.10,2013-03-22 23:56:00,
2013-03-22 20:26:00,32.2,17.0,29.64,SW,234,5.0,8.0,54,0.00,,,0.00,weatherlink.com 1.10,2013-03-23 00:26:00,
2013-03-22 20:41:00,31.8,17.0,29.64,SW,229,6.0,9.0,55,0.00,,,0.00,weatherlink.com 1.10,2013-03-23 00:41:00,
2013-03-22 21:11:00,31.0,18.0,29.64,WSW,252,4.0,6.0,58,0.00,,,0.00,weatherlink.com 1.10,2013-03-23 01:11:00,
2013-03-22 21:26:00,31.1,18.0,29.64,WSW,245,7.0,9.0,58,0.00,,,0.00,weatherlink.com 1.10,2013-03-23 01:26:00,
2013-03-22 21:41:00,31.0,18.0,29.64,West,264,7.0,9.0,59,0.00,,,0.00,weatherlink.com 1.10,2013-03-23 01:41:00,
2013-03-22 21:56:00,30.6,18.0,29.64,West,263,5.0,8.0,61,0.00,,,0.00,weatherlink.com 1.10,2013-03-23 01:56:00,
2013-03-22 22:26:00,30.7,19.0,29.64,WSW,257,8.0,12.0,62,0.00,,,0.00,weatherlink.com 1.10,2013-03-23 02:26:00,
2013-03-22 22:41:00,30.6,19.0,29.64,SW,229,7.0,10.0,63,0.00,,,0.00,weatherlink.com 1.10,2013-03-23 02:41:00,
2013-03-22 22:56:00,30.5,19.0,29.64,WSW,249,8.0,9.0,63,0.00,,,0.00,weatherlink.com 1.10,2013-03-23 02:56:00,
2013-03-22 23:11:00,30.6,19.0,29.64,WSW,250,7.0,12.0,63,0.00,,,0.00,weatherlink.com 1.10,2013-03-23 03:11:00,
2013-03-22 23:41:00,30.4,19.0,29.65,West,276,8.0,12.0,63,0.00,,,0.00,weatherlink.com 1.10,2013-03-23 03:41:00,
2013-03-22 23:56:00,30.4,19.0,29.65,West,269,9.0,14.0,63,0.00,,,0.00,weatherlink.com 1.10,2013-03-23 03:56:00,